sensor_id;sensor_type;location;lat;lon;timestamp;P1;durP1;ratioP1;P2;durP2;ratioP2
18190;SDS011;47004;51.366;12.348;2022-11-20T00:01:31;31.17;;;12.38;;
18190;SDS011;47004;51.366;12.348;2022-11-20T00:03:35;31.23;;;12.70;;
18190;SDS011;47004;51.366;12.348;2022-11-20T00:05:37;31.52;;;13.40;;
18190;SDS011;47004;51.366;12.348;2022-11-20T00:07:39;32.97;;;13.35;;
18190;SDS011;47004;51.366;12.348;2022-11-20T00:09:41;30.52;;;11.63;;
18190;SDS011;47004;51.366;12.348;2022-11-20T00:11:43;31.25;;;13.55;;
18190;SDS011;47004;51.366;12.348;2022-11-20T00:13:45;31.48;;;13.60;;
18190;SDS011;47004;51.366;12.348;2022-11-20T00:15:48;30.63;;;13.30;;
18190;SDS011;47004;51.366;12.348;2022-11-20T00:17:57;38.97;;;12.98;;
18190;SDS011;47004;51.366;12.348;2022-11-20T00:20:00;36.13;;;13.55;;
18190;SDS011;47004;51.366;12.348;2022-11-20T00:22:02;30.15;;;12.63;;
18190;SDS011;47004;51.366;12.348;2022-11-20T00:24:05;32.88;;;13.38;;
18190;SDS011;47004;51.366;12.348;2022-11-20T00:26:14;30.90;;;12.63;;
18190;SDS011;47004;51.366;12.348;2022-11-20T00:28:18;31.95;;;12.73;;
18190;SDS011;47004;51.366;12.348;2022-11-20T00:30:20;32.08;;;12.32;;
18190;SDS011;47004;51.366;12.348;2022-11-20T00:32:22;29.23;;;12.25;;
18190;SDS011;47004;51.366;12.348;2022-11-20T00:34:24;33.67;;;12.88;;
18190;SDS011;47004;51.366;12.348;2022-11-20T00:36:28;30.88;;;13.05;;
18190;SDS011;47004;51.366;12.348;2022-11-20T00:38:33;33.40;;;13.63;;
18190;SDS011;47004;51.366;12.348;2022-11-20T00:40:35;34.35;;;13.18;;
18190;SDS011;47004;51.366;12.348;2022-11-20T00:42:37;32.15;;;12.55;;
18190;SDS011;47004;51.366;12.348;2022-11-20T00:44:39;31.25;;;13.55;;
18190;SDS011;47004;51.366;12.348;2022-11-20T00:46:41;34.10;;;13.32;;
18190;SDS011;47004;51.366;12.348;2022-11-20T00:48:43;27.55;;;11.63;;
18190;SDS011;47004;51.366;12.348;2022-11-20T00:50:46;30.08;;;11.85;;
18190;SDS011;47004;51.366;12.348;2022-11-20T00:52:52;34.67;;;13.73;;
18190;SDS011;47004;51.366;12.348;2022-11-20T00:54:54;31.45;;;12.13;;
18190;SDS011;47004;51.366;12.348;2022-11-20T00:56:56;32.88;;;12.85;;
18190;SDS011;47004;51.366;12.348;2022-11-20T00:59:00;31.38;;;13.20;;
18190;SDS011;47004;51.366;12.348;2022-11-20T01:01:03;28.88;;;11.75;;
18190;SDS011;47004;51.366;12.348;2022-11-20T01:03:07;29.45;;;11.95;;
18190;SDS011;47004;51.366;12.348;2022-11-20T01:05:09;27.17;;;11.68;;
18190;SDS011;47004;51.366;12.348;2022-11-20T01:07:11;32.20;;;12.27;;
18190;SDS011;47004;51.366;12.348;2022-11-20T01:09:14;29.85;;;12.80;;
18190;SDS011;47004;51.366;12.348;2022-11-20T01:11:16;30.55;;;12.10;;
18190;SDS011;47004;51.366;12.348;2022-11-20T01:13:20;27.40;;;11.02;;
18190;SDS011;47004;51.366;12.348;2022-11-20T01:15:41;29.92;;;12.00;;
18190;SDS011;47004;51.366;12.348;2022-11-20T01:17:42;26.98;;;11.68;;
18190;SDS011;47004;51.366;12.348;2022-11-20T01:19:44;31.63;;;11.43;;
18190;SDS011;47004;51.366;12.348;2022-11-20T01:21:50;33.30;;;12.80;;
18190;SDS011;47004;51.366;12.348;2022-11-20T01:23:53;28.73;;;12.10;;
18190;SDS011;47004;51.366;12.348;2022-11-20T01:26:01;33.33;;;12.75;;
18190;SDS011;47004;51.366;12.348;2022-11-20T01:28:03;25.10;;;10.82;;
18190;SDS011;47004;51.366;12.348;2022-11-20T01:30:06;32.55;;;12.68;;
18190;SDS011;47004;51.366;12.348;2022-11-20T01:32:08;30.48;;;13.38;;
18190;SDS011;47004;51.366;12.348;2022-11-20T01:34:11;27.90;;;11.32;;
18190;SDS011;47004;51.366;12.348;2022-11-20T01:36:14;32.80;;;12.65;;
18190;SDS011;47004;51.366;12.348;2022-11-20T01:38:18;28.48;;;12.05;;
18190;SDS011;47004;51.366;12.348;2022-11-20T01:40:22;31.77;;;12.52;;
18190;SDS011;47004;51.366;12.348;2022-11-20T01:42:25;34.03;;;13.02;;
18190;SDS011;47004;51.366;12.348;2022-11-20T01:44:48;31.55;;;12.82;;
18190;SDS011;47004;51.366;12.348;2022-11-20T01:46:53;32.45;;;12.50;;
18190;SDS011;47004;51.366;12.348;2022-11-20T01:48:59;31.67;;;11.75;;
18190;SDS011;47004;51.366;12.348;2022-11-20T01:51:06;34.30;;;11.98;;
18190;SDS011;47004;51.366;12.348;2022-11-20T01:53:14;27.35;;;11.75;;
18190;SDS011;47004;51.366;12.348;2022-11-20T01:55:21;30.67;;;12.43;;
18190;SDS011;47004;51.366;12.348;2022-11-20T01:57:28;30.65;;;12.07;;
18190;SDS011;47004;51.366;12.348;2022-11-20T01:59:32;31.77;;;12.57;;
18190;SDS011;47004;51.366;12.348;2022-11-20T02:01:37;28.00;;;11.50;;
18190;SDS011;47004;51.366;12.348;2022-11-20T02:03:39;32.70;;;12.75;;
18190;SDS011;47004;51.366;12.348;2022-11-20T02:05:43;28.27;;;12.25;;
18190;SDS011;47004;51.366;12.348;2022-11-20T02:07:49;27.90;;;11.88;;
18190;SDS011;47004;51.366;12.348;2022-11-20T02:09:51;30.27;;;12.88;;
18190;SDS011;47004;51.366;12.348;2022-11-20T02:11:53;33.20;;;13.13;;
18190;SDS011;47004;51.366;12.348;2022-11-20T02:13:57;32.17;;;11.98;;
18190;SDS011;47004;51.366;12.348;2022-11-20T02:15:59;28.35;;;12.63;;
18190;SDS011;47004;51.366;12.348;2022-11-20T02:18:01;32.78;;;11.90;;
18190;SDS011;47004;51.366;12.348;2022-11-20T02:20:03;29.77;;;12.23;;
18190;SDS011;47004;51.366;12.348;2022-11-20T02:22:07;32.50;;;12.52;;
18190;SDS011;47004;51.366;12.348;2022-11-20T02:24:15;36.45;;;13.90;;
18190;SDS011;47004;51.366;12.348;2022-11-20T02:26:18;29.45;;;12.13;;
18190;SDS011;47004;51.366;12.348;2022-11-20T02:28:22;33.33;;;13.32;;
18190;SDS011;47004;51.366;12.348;2022-11-20T02:30:24;31.58;;;13.20;;
18190;SDS011;47004;51.366;12.348;2022-11-20T02:32:26;29.55;;;11.57;;
18190;SDS011;47004;51.366;12.348;2022-11-20T02:34:30;29.75;;;11.35;;
18190;SDS011;47004;51.366;12.348;2022-11-20T02:36:33;28.42;;;11.63;;
18190;SDS011;47004;51.366;12.348;2022-11-20T02:38:37;30.50;;;13.05;;
18190;SDS011;47004;51.366;12.348;2022-11-20T02:40:41;30.48;;;11.65;;
18190;SDS011;47004;51.366;12.348;2022-11-20T02:42:43;35.00;;;12.48;;
18190;SDS011;47004;51.366;12.348;2022-11-20T02:44:45;30.60;;;12.30;;
18190;SDS011;47004;51.366;12.348;2022-11-20T02:46:47;33.05;;;12.98;;
18190;SDS011;47004;51.366;12.348;2022-11-20T02:48:49;32.40;;;12.57;;
18190;SDS011;47004;51.366;12.348;2022-11-20T02:50:50;32.65;;;13.07;;
18190;SDS011;47004;51.366;12.348;2022-11-20T02:52:52;31.88;;;12.73;;
18190;SDS011;47004;51.366;12.348;2022-11-20T02:54:57;30.17;;;11.65;;
18190;SDS011;47004;51.366;12.348;2022-11-20T02:57:00;31.95;;;12.27;;
18190;SDS011;47004;51.366;12.348;2022-11-20T02:59:02;29.73;;;12.07;;
18190;SDS011;47004;51.366;12.348;2022-11-20T03:01:04;36.97;;;13.35;;
18190;SDS011;47004;51.366;12.348;2022-11-20T03:03:06;32.47;;;13.13;;
18190;SDS011;47004;51.366;12.348;2022-11-20T03:05:10;34.38;;;12.70;;
18190;SDS011;47004;51.366;12.348;2022-11-20T03:07:12;30.48;;;12.43;;
18190;SDS011;47004;51.366;12.348;2022-11-20T03:09:14;29.23;;;11.82;;
18190;SDS011;47004;51.366;12.348;2022-11-20T03:11:16;30.33;;;12.68;;
18190;SDS011;47004;51.366;12.348;2022-11-20T03:13:19;34.67;;;12.45;;
18190;SDS011;47004;51.366;12.348;2022-11-20T03:15:21;28.67;;;12.55;;
18190;SDS011;47004;51.366;12.348;2022-11-20T03:17:23;28.20;;;11.35;;
18190;SDS011;47004;51.366;12.348;2022-11-20T03:19:25;32.17;;;12.25;;
18190;SDS011;47004;51.366;12.348;2022-11-20T03:21:27;35.42;;;12.57;;
18190;SDS011;47004;51.366;12.348;2022-11-20T03:23:29;34.75;;;12.68;;
18190;SDS011;47004;51.366;12.348;2022-11-20T03:25:32;32.15;;;12.75;;
18190;SDS011;47004;51.366;12.348;2022-11-20T03:27:34;31.25;;;13.07;;
18190;SDS011;47004;51.366;12.348;2022-11-20T03:29:37;33.72;;;12.80;;
18190;SDS011;47004;51.366;12.348;2022-11-20T03:31:40;37.03;;;13.85;;
18190;SDS011;47004;51.366;12.348;2022-11-20T03:33:42;33.80;;;12.80;;
18190;SDS011;47004;51.366;12.348;2022-11-20T03:35:44;31.85;;;13.15;;
18190;SDS011;47004;51.366;12.348;2022-11-20T03:37:46;28.90;;;11.90;;
18190;SDS011;47004;51.366;12.348;2022-11-20T03:39:48;33.38;;;12.65;;
18190;SDS011;47004;51.366;12.348;2022-11-20T03:41:50;34.00;;;13.20;;
18190;SDS011;47004;51.366;12.348;2022-11-20T03:43:53;37.20;;;13.38;;
18190;SDS011;47004;51.366;12.348;2022-11-20T03:45:57;31.52;;;12.88;;
18190;SDS011;47004;51.366;12.348;2022-11-20T03:47:59;39.50;;;13.45;;
18190;SDS011;47004;51.366;12.348;2022-11-20T03:50:01;32.42;;;12.50;;
18190;SDS011;47004;51.366;12.348;2022-11-20T03:52:03;34.13;;;12.93;;
18190;SDS011;47004;51.366;12.348;2022-11-20T03:54:06;35.55;;;12.48;;
18190;SDS011;47004;51.366;12.348;2022-11-20T03:56:09;30.52;;;12.13;;
18190;SDS011;47004;51.366;12.348;2022-11-20T03:58:12;29.15;;;12.25;;
18190;SDS011;47004;51.366;12.348;2022-11-20T04:00:14;34.33;;;13.10;;
18190;SDS011;47004;51.366;12.348;2022-11-20T04:02:18;35.00;;;12.60;;
18190;SDS011;47004;51.366;12.348;2022-11-20T04:04:20;31.33;;;12.23;;
18190;SDS011;47004;51.366;12.348;2022-11-20T04:06:22;34.40;;;13.82;;
18190;SDS011;47004;51.366;12.348;2022-11-20T04:08:25;35.92;;;13.60;;
18190;SDS011;47004;51.366;12.348;2022-11-20T04:10:29;35.80;;;13.35;;
18190;SDS011;47004;51.366;12.348;2022-11-20T04:12:31;30.92;;;13.15;;
18190;SDS011;47004;51.366;12.348;2022-11-20T04:14:34;34.45;;;13.60;;
18190;SDS011;47004;51.366;12.348;2022-11-20T04:16:36;43.53;;;13.85;;
18190;SDS011;47004;51.366;12.348;2022-11-20T04:18:40;36.72;;;14.20;;
18190;SDS011;47004;51.366;12.348;2022-11-20T04:20:42;36.80;;;14.00;;
18190;SDS011;47004;51.366;12.348;2022-11-20T04:22:45;36.90;;;14.50;;
18190;SDS011;47004;51.366;12.348;2022-11-20T04:24:47;39.53;;;14.40;;
18190;SDS011;47004;51.366;12.348;2022-11-20T04:26:49;36.85;;;13.20;;
18190;SDS011;47004;51.366;12.348;2022-11-20T04:28:51;43.88;;;15.50;;
18190;SDS011;47004;51.366;12.348;2022-11-20T04:30:53;38.22;;;14.35;;
18190;SDS011;47004;51.366;12.348;2022-11-20T04:32:55;37.63;;;13.52;;
18190;SDS011;47004;51.366;12.348;2022-11-20T04:34:58;34.47;;;13.70;;
18190;SDS011;47004;51.366;12.348;2022-11-20T04:37:00;41.20;;;15.18;;
18190;SDS011;47004;51.366;12.348;2022-11-20T04:39:03;39.25;;;14.55;;
18190;SDS011;47004;51.366;12.348;2022-11-20T04:41:06;39.20;;;15.57;;
18190;SDS011;47004;51.366;12.348;2022-11-20T04:43:14;40.88;;;15.35;;
18190;SDS011;47004;51.366;12.348;2022-11-20T04:45:16;44.50;;;14.65;;
18190;SDS011;47004;51.366;12.348;2022-11-20T04:47:20;36.00;;;14.13;;
18190;SDS011;47004;51.366;12.348;2022-11-20T04:49:22;43.08;;;15.10;;
18190;SDS011;47004;51.366;12.348;2022-11-20T04:51:25;42.25;;;15.23;;
18190;SDS011;47004;51.366;12.348;2022-11-20T04:53:27;42.97;;;14.85;;
18190;SDS011;47004;51.366;12.348;2022-11-20T04:55:29;44.20;;;15.55;;
18190;SDS011;47004;51.366;12.348;2022-11-20T04:57:31;41.10;;;14.98;;
18190;SDS011;47004;51.366;12.348;2022-11-20T04:59:35;39.55;;;14.77;;
18190;SDS011;47004;51.366;12.348;2022-11-20T05:01:37;37.03;;;15.43;;
18190;SDS011;47004;51.366;12.348;2022-11-20T05:03:39;43.03;;;15.50;;
18190;SDS011;47004;51.366;12.348;2022-11-20T05:05:41;34.10;;;13.98;;
18190;SDS011;47004;51.366;12.348;2022-11-20T05:07:44;44.03;;;15.98;;
18190;SDS011;47004;51.366;12.348;2022-11-20T05:09:46;46.00;;;15.63;;
18190;SDS011;47004;51.366;12.348;2022-11-20T05:11:48;44.65;;;16.30;;
18190;SDS011;47004;51.366;12.348;2022-11-20T05:13:50;43.13;;;14.95;;
18190;SDS011;47004;51.366;12.348;2022-11-20T05:15:53;44.13;;;16.35;;
18190;SDS011;47004;51.366;12.348;2022-11-20T05:17:55;48.15;;;16.15;;
18190;SDS011;47004;51.366;12.348;2022-11-20T05:19:57;43.28;;;16.17;;
18190;SDS011;47004;51.366;12.348;2022-11-20T05:21:58;41.42;;;15.80;;
18190;SDS011;47004;51.366;12.348;2022-11-20T05:24:02;44.20;;;15.82;;
18190;SDS011;47004;51.366;12.348;2022-11-20T05:26:05;40.67;;;14.95;;
18190;SDS011;47004;51.366;12.348;2022-11-20T05:28:07;42.13;;;15.93;;
18190;SDS011;47004;51.366;12.348;2022-11-20T05:30:10;42.70;;;15.07;;
18190;SDS011;47004;51.366;12.348;2022-11-20T05:32:12;44.58;;;15.23;;
18190;SDS011;47004;51.366;12.348;2022-11-20T05:34:14;41.75;;;15.38;;
18190;SDS011;47004;51.366;12.348;2022-11-20T05:36:17;37.83;;;15.23;;
18190;SDS011;47004;51.366;12.348;2022-11-20T05:38:18;45.25;;;15.30;;
18190;SDS011;47004;51.366;12.348;2022-11-20T05:40:22;45.72;;;15.60;;
18190;SDS011;47004;51.366;12.348;2022-11-20T05:42:24;43.08;;;15.65;;
18190;SDS011;47004;51.366;12.348;2022-11-20T05:44:31;40.00;;;15.43;;
18190;SDS011;47004;51.366;12.348;2022-11-20T05:46:33;45.58;;;16.40;;
18190;SDS011;47004;51.366;12.348;2022-11-20T05:48:35;47.95;;;16.23;;
18190;SDS011;47004;51.366;12.348;2022-11-20T05:50:38;40.15;;;15.88;;
18190;SDS011;47004;51.366;12.348;2022-11-20T05:52:40;45.67;;;16.50;;
18190;SDS011;47004;51.366;12.348;2022-11-20T05:54:42;43.35;;;15.70;;
18190;SDS011;47004;51.366;12.348;2022-11-20T05:56:46;41.85;;;15.18;;
18190;SDS011;47004;51.366;12.348;2022-11-20T05:58:50;39.28;;;14.25;;
18190;SDS011;47004;51.366;12.348;2022-11-20T06:00:52;45.13;;;15.98;;
18190;SDS011;47004;51.366;12.348;2022-11-20T06:02:54;46.88;;;16.35;;
18190;SDS011;47004;51.366;12.348;2022-11-20T06:04:56;46.60;;;17.92;;
18190;SDS011;47004;51.366;12.348;2022-11-20T06:06:58;40.47;;;14.80;;
18190;SDS011;47004;51.366;12.348;2022-11-20T06:09:00;38.25;;;14.73;;
18190;SDS011;47004;51.366;12.348;2022-11-20T06:11:05;41.75;;;15.50;;
18190;SDS011;47004;51.366;12.348;2022-11-20T06:13:09;39.78;;;14.43;;
18190;SDS011;47004;51.366;12.348;2022-11-20T06:15:11;41.72;;;14.43;;
18190;SDS011;47004;51.366;12.348;2022-11-20T06:17:13;45.28;;;16.08;;
18190;SDS011;47004;51.366;12.348;2022-11-20T06:19:15;39.03;;;14.77;;
18190;SDS011;47004;51.366;12.348;2022-11-20T06:21:18;42.67;;;15.30;;
18190;SDS011;47004;51.366;12.348;2022-11-20T06:23:21;44.47;;;15.48;;
18190;SDS011;47004;51.366;12.348;2022-11-20T06:25:23;39.65;;;15.07;;
18190;SDS011;47004;51.366;12.348;2022-11-20T06:27:27;49.28;;;17.65;;
18190;SDS011;47004;51.366;12.348;2022-11-20T06:29:30;43.92;;;16.35;;
18190;SDS011;47004;51.366;12.348;2022-11-20T06:31:32;47.58;;;15.75;;
18190;SDS011;47004;51.366;12.348;2022-11-20T06:33:37;46.90;;;16.08;;
18190;SDS011;47004;51.366;12.348;2022-11-20T06:35:39;42.88;;;15.50;;
18190;SDS011;47004;51.366;12.348;2022-11-20T06:37:41;45.97;;;15.35;;
18190;SDS011;47004;51.366;12.348;2022-11-20T06:39:43;44.50;;;15.57;;
18190;SDS011;47004;51.366;12.348;2022-11-20T06:41:46;45.85;;;15.95;;
18190;SDS011;47004;51.366;12.348;2022-11-20T06:43:48;56.67;;;17.27;;
18190;SDS011;47004;51.366;12.348;2022-11-20T06:45:53;40.35;;;14.82;;
18190;SDS011;47004;51.366;12.348;2022-11-20T06:47:56;46.92;;;16.65;;
18190;SDS011;47004;51.366;12.348;2022-11-20T06:49:58;53.50;;;17.05;;
18190;SDS011;47004;51.366;12.348;2022-11-20T06:52:00;44.83;;;16.60;;
18190;SDS011;47004;51.366;12.348;2022-11-20T06:54:02;43.88;;;15.13;;
18190;SDS011;47004;51.366;12.348;2022-11-20T06:56:05;44.72;;;16.30;;
18190;SDS011;47004;51.366;12.348;2022-11-20T06:58:08;48.75;;;16.48;;
18190;SDS011;47004;51.366;12.348;2022-11-20T07:00:13;45.22;;;16.63;;
18190;SDS011;47004;51.366;12.348;2022-11-20T07:02:16;46.13;;;14.90;;
18190;SDS011;47004;51.366;12.348;2022-11-20T07:04:18;46.00;;;17.67;;
18190;SDS011;47004;51.366;12.348;2022-11-20T07:06:22;46.50;;;15.43;;
18190;SDS011;47004;51.366;12.348;2022-11-20T07:08:24;46.50;;;16.25;;
18190;SDS011;47004;51.366;12.348;2022-11-20T07:10:26;44.22;;;15.93;;
18190;SDS011;47004;51.366;12.348;2022-11-20T07:12:28;38.42;;;14.32;;
18190;SDS011;47004;51.366;12.348;2022-11-20T07:14:30;42.67;;;15.43;;
18190;SDS011;47004;51.366;12.348;2022-11-20T07:16:32;41.63;;;16.00;;
18190;SDS011;47004;51.366;12.348;2022-11-20T07:18:36;41.55;;;14.48;;
18190;SDS011;47004;51.366;12.348;2022-11-20T07:20:38;46.88;;;16.35;;
18190;SDS011;47004;51.366;12.348;2022-11-20T07:22:40;46.33;;;15.68;;
18190;SDS011;47004;51.366;12.348;2022-11-20T07:24:42;43.95;;;16.05;;
18190;SDS011;47004;51.366;12.348;2022-11-20T07:26:47;45.63;;;15.38;;
18190;SDS011;47004;51.366;12.348;2022-11-20T07:28:49;45.42;;;16.23;;
18190;SDS011;47004;51.366;12.348;2022-11-20T07:30:52;46.10;;;15.85;;
18190;SDS011;47004;51.366;12.348;2022-11-20T07:32:54;43.05;;;16.45;;
18190;SDS011;47004;51.366;12.348;2022-11-20T07:34:58;39.88;;;14.55;;
18190;SDS011;47004;51.366;12.348;2022-11-20T07:37:00;42.40;;;15.70;;
18190;SDS011;47004;51.366;12.348;2022-11-20T07:39:02;47.92;;;16.27;;
18190;SDS011;47004;51.366;12.348;2022-11-20T07:41:07;47.70;;;17.02;;
18190;SDS011;47004;51.366;12.348;2022-11-20T07:43:12;48.78;;;17.30;;
18190;SDS011;47004;51.366;12.348;2022-11-20T07:45:14;44.97;;;16.17;;
18190;SDS011;47004;51.366;12.348;2022-11-20T07:47:16;45.53;;;16.60;;
18190;SDS011;47004;51.366;12.348;2022-11-20T07:49:18;46.03;;;16.42;;
18190;SDS011;47004;51.366;12.348;2022-11-20T07:51:21;43.47;;;16.35;;
18190;SDS011;47004;51.366;12.348;2022-11-20T07:53:23;43.42;;;17.20;;
18190;SDS011;47004;51.366;12.348;2022-11-20T07:55:28;47.08;;;15.80;;
18190;SDS011;47004;51.366;12.348;2022-11-20T07:57:30;45.67;;;16.20;;
18190;SDS011;47004;51.366;12.348;2022-11-20T07:59:34;42.63;;;15.73;;
18190;SDS011;47004;51.366;12.348;2022-11-20T08:01:37;39.63;;;15.90;;
18190;SDS011;47004;51.366;12.348;2022-11-20T08:03:38;48.10;;;16.23;;
18190;SDS011;47004;51.366;12.348;2022-11-20T08:05:40;41.75;;;14.90;;
18190;SDS011;47004;51.366;12.348;2022-11-20T08:07:44;44.00;;;16.08;;
18190;SDS011;47004;51.366;12.348;2022-11-20T08:09:46;44.92;;;16.30;;
18190;SDS011;47004;51.366;12.348;2022-11-20T08:11:48;41.42;;;14.00;;
18190;SDS011;47004;51.366;12.348;2022-11-20T08:14:07;40.03;;;14.50;;
18190;SDS011;47004;51.366;12.348;2022-11-20T08:16:15;44.92;;;15.73;;
18190;SDS011;47004;51.366;12.348;2022-11-20T08:18:17;43.50;;;16.85;;
18190;SDS011;47004;51.366;12.348;2022-11-20T08:20:20;49.40;;;18.88;;
18190;SDS011;47004;51.366;12.348;2022-11-20T08:22:22;46.17;;;17.60;;
18190;SDS011;47004;51.366;12.348;2022-11-20T08:24:26;40.17;;;15.57;;
18190;SDS011;47004;51.366;12.348;2022-11-20T08:26:28;42.15;;;16.33;;
18190;SDS011;47004;51.366;12.348;2022-11-20T08:28:30;37.85;;;15.00;;
18190;SDS011;47004;51.366;12.348;2022-11-20T08:30:32;43.28;;;17.25;;
18190;SDS011;47004;51.366;12.348;2022-11-20T08:32:35;42.35;;;15.23;;
18190;SDS011;47004;51.366;12.348;2022-11-20T08:34:38;43.95;;;15.25;;
18190;SDS011;47004;51.366;12.348;2022-11-20T08:36:40;42.40;;;15.48;;
18190;SDS011;47004;51.366;12.348;2022-11-20T08:38:46;40.22;;;14.73;;
18190;SDS011;47004;51.366;12.348;2022-11-20T08:40:49;39.13;;;14.60;;
18190;SDS011;47004;51.366;12.348;2022-11-20T08:43:05;44.30;;;16.45;;
18190;SDS011;47004;51.366;12.348;2022-11-20T08:45:07;43.20;;;15.80;;
18190;SDS011;47004;51.366;12.348;2022-11-20T08:47:10;46.08;;;16.98;;
18190;SDS011;47004;51.366;12.348;2022-11-20T08:49:12;47.28;;;16.58;;
18190;SDS011;47004;51.366;12.348;2022-11-20T08:51:15;37.72;;;14.10;;
18190;SDS011;47004;51.366;12.348;2022-11-20T08:53:17;38.08;;;15.25;;
18190;SDS011;47004;51.366;12.348;2022-11-20T08:55:19;51.35;;;16.35;;
18190;SDS011;47004;51.366;12.348;2022-11-20T08:57:23;40.22;;;14.70;;
18190;SDS011;47004;51.366;12.348;2022-11-20T08:59:24;39.08;;;14.25;;
18190;SDS011;47004;51.366;12.348;2022-11-20T09:01:27;39.17;;;15.65;;
18190;SDS011;47004;51.366;12.348;2022-11-20T09:03:30;39.13;;;15.40;;
18190;SDS011;47004;51.366;12.348;2022-11-20T09:05:32;40.58;;;14.40;;
18190;SDS011;47004;51.366;12.348;2022-11-20T09:07:34;40.30;;;15.30;;
18190;SDS011;47004;51.366;12.348;2022-11-20T09:09:36;38.38;;;14.93;;
18190;SDS011;47004;51.366;12.348;2022-11-20T09:11:38;41.35;;;16.00;;
18190;SDS011;47004;51.366;12.348;2022-11-20T09:13:42;44.30;;;15.32;;
18190;SDS011;47004;51.366;12.348;2022-11-20T09:15:43;41.03;;;15.00;;
18190;SDS011;47004;51.366;12.348;2022-11-20T09:17:50;33.95;;;14.77;;
18190;SDS011;47004;51.366;12.348;2022-11-20T09:19:52;39.53;;;14.93;;
18190;SDS011;47004;51.366;12.348;2022-11-20T09:21:54;40.38;;;15.13;;
18190;SDS011;47004;51.366;12.348;2022-11-20T09:23:56;38.13;;;14.55;;
18190;SDS011;47004;51.366;12.348;2022-11-20T09:26:00;39.50;;;14.75;;
18190;SDS011;47004;51.366;12.348;2022-11-20T09:28:03;39.47;;;14.80;;
18190;SDS011;47004;51.366;12.348;2022-11-20T09:30:07;37.88;;;14.32;;
18190;SDS011;47004;51.366;12.348;2022-11-20T09:32:09;38.55;;;15.13;;
18190;SDS011;47004;51.366;12.348;2022-11-20T09:34:11;41.50;;;14.82;;
18190;SDS011;47004;51.366;12.348;2022-11-20T09:36:13;37.33;;;14.43;;
18190;SDS011;47004;51.366;12.348;2022-11-20T09:38:16;40.92;;;14.88;;
18190;SDS011;47004;51.366;12.348;2022-11-20T09:40:19;34.72;;;13.68;;
18190;SDS011;47004;51.366;12.348;2022-11-20T09:42:26;34.85;;;13.93;;
18190;SDS011;47004;51.366;12.348;2022-11-20T09:44:45;44.67;;;15.40;;
18190;SDS011;47004;51.366;12.348;2022-11-20T09:47:00;39.47;;;15.15;;
18190;SDS011;47004;51.366;12.348;2022-11-20T09:49:14;35.95;;;14.10;;
18190;SDS011;47004;51.366;12.348;2022-11-20T09:51:27;34.47;;;13.43;;
18190;SDS011;47004;51.366;12.348;2022-11-20T09:53:39;40.45;;;14.35;;
18190;SDS011;47004;51.366;12.348;2022-11-20T09:55:51;39.45;;;14.63;;
18190;SDS011;47004;51.366;12.348;2022-11-20T09:57:53;41.70;;;14.85;;
18190;SDS011;47004;51.366;12.348;2022-11-20T09:59:56;40.90;;;14.38;;
18190;SDS011;47004;51.366;12.348;2022-11-20T10:02:03;39.28;;;14.07;;
18190;SDS011;47004;51.366;12.348;2022-11-20T10:04:17;42.30;;;16.17;;
18190;SDS011;47004;51.366;12.348;2022-11-20T10:06:21;45.03;;;15.48;;
18190;SDS011;47004;51.366;12.348;2022-11-20T10:08:30;45.95;;;15.88;;
18190;SDS011;47004;51.366;12.348;2022-11-20T10:10:41;46.45;;;17.50;;
18190;SDS011;47004;51.366;12.348;2022-11-20T10:12:52;52.13;;;18.10;;
18190;SDS011;47004;51.366;12.348;2022-11-20T10:15:10;46.67;;;17.08;;
18190;SDS011;47004;51.366;12.348;2022-11-20T10:17:23;43.33;;;16.80;;
18190;SDS011;47004;51.366;12.348;2022-11-20T10:19:59;58.72;;;18.75;;
18190;SDS011;47004;51.366;12.348;2022-11-20T10:22:21;50.28;;;18.80;;
18190;SDS011;47004;51.366;12.348;2022-11-20T10:24:40;55.65;;;20.33;;
18190;SDS011;47004;51.366;12.348;2022-11-20T10:26:48;52.97;;;19.50;;
18190;SDS011;47004;51.366;12.348;2022-11-20T10:29:01;48.70;;;19.08;;
18190;SDS011;47004;51.366;12.348;2022-11-20T10:31:11;49.78;;;18.00;;
18190;SDS011;47004;51.366;12.348;2022-11-20T10:33:21;45.72;;;17.63;;
18190;SDS011;47004;51.366;12.348;2022-11-20T10:35:26;43.90;;;17.50;;
18190;SDS011;47004;51.366;12.348;2022-11-20T10:37:33;41.40;;;15.77;;
18190;SDS011;47004;51.366;12.348;2022-11-20T10:39:40;39.73;;;15.47;;
18190;SDS011;47004;51.366;12.348;2022-11-20T10:41:49;39.27;;;15.87;;
18190;SDS011;47004;51.366;12.348;2022-11-20T10:43:55;37.60;;;15.97;;
18190;SDS011;47004;51.366;12.348;2022-11-20T10:46:06;40.27;;;15.93;;
18190;SDS011;47004;51.366;12.348;2022-11-20T10:48:16;36.73;;;14.83;;
18190;SDS011;47004;51.366;12.348;2022-11-20T10:50:24;42.27;;;16.50;;
18190;SDS011;47004;51.366;12.348;2022-11-20T10:52:28;41.00;;;14.73;;
18190;SDS011;47004;51.366;12.348;2022-11-20T10:54:37;36.27;;;14.63;;
18190;SDS011;47004;51.366;12.348;2022-11-20T10:56:48;36.90;;;15.80;;
18190;SDS011;47004;51.366;12.348;2022-11-20T10:58:57;35.53;;;15.17;;
18190;SDS011;47004;51.366;12.348;2022-11-20T11:01:11;29.60;;;13.17;;
18190;SDS011;47004;51.366;12.348;2022-11-20T11:03:22;31.93;;;12.57;;
18190;SDS011;47004;51.366;12.348;2022-11-20T11:05:33;29.87;;;12.27;;
18190;SDS011;47004;51.366;12.348;2022-11-20T11:07:40;29.90;;;12.90;;
18190;SDS011;47004;51.366;12.348;2022-11-20T11:09:43;24.60;;;11.70;;
18190;SDS011;47004;51.366;12.348;2022-11-20T11:11:49;25.63;;;11.27;;
18190;SDS011;47004;51.366;12.348;2022-11-20T11:13:52;27.27;;;11.93;;
18190;SDS011;47004;51.366;12.348;2022-11-20T11:15:53;24.60;;;10.90;;
18190;SDS011;47004;51.366;12.348;2022-11-20T11:17:56;24.33;;;10.57;;
18190;SDS011;47004;51.366;12.348;2022-11-20T11:19:58;25.00;;;10.67;;
18190;SDS011;47004;51.366;12.348;2022-11-20T11:22:03;22.57;;;9.67;;
18190;SDS011;47004;51.366;12.348;2022-11-20T11:24:19;20.60;;;9.60;;
18190;SDS011;47004;51.366;12.348;2022-11-20T11:26:23;22.57;;;10.00;;
18190;SDS011;47004;51.366;12.348;2022-11-20T11:28:26;22.33;;;9.10;;
18190;SDS011;47004;51.366;12.348;2022-11-20T11:30:29;20.50;;;9.03;;
18190;SDS011;47004;51.366;12.348;2022-11-20T11:32:41;20.47;;;9.63;;
18190;SDS011;47004;51.366;12.348;2022-11-20T11:34:44;21.27;;;10.00;;
18190;SDS011;47004;51.366;12.348;2022-11-20T11:36:49;20.87;;;9.60;;
18190;SDS011;47004;51.366;12.348;2022-11-20T11:38:58;23.63;;;9.87;;
18190;SDS011;47004;51.366;12.348;2022-11-20T11:41:00;17.90;;;9.07;;
18190;SDS011;47004;51.366;12.348;2022-11-20T11:43:04;17.80;;;8.00;;
18190;SDS011;47004;51.366;12.348;2022-11-20T11:45:28;18.43;;;8.27;;
18190;SDS011;47004;51.366;12.348;2022-11-20T11:47:30;18.47;;;8.40;;
18190;SDS011;47004;51.366;12.348;2022-11-20T11:49:34;20.73;;;8.33;;
18190;SDS011;47004;51.366;12.348;2022-11-20T11:51:39;16.53;;;7.90;;
18190;SDS011;47004;51.366;12.348;2022-11-20T11:53:59;16.90;;;8.50;;
18190;SDS011;47004;51.366;12.348;2022-11-20T11:56:05;20.17;;;9.10;;